Meteo Giornale » Osservazioni meteo Italia » Pratica Di Mare

ore: 07:55 - Osservazioni Meteo Pratica Di Mare
Lat. 41° 39' N Lon. 12° 27' E Alt. 6 metri s.l.m.

poco_nuvoloso Europe/Rome

11 °C

Poco Nuvoloso

Temp. 24 Ore

8 °C

20 °C

Nord/NOvest

14.8 Km/h

Dew point 10 °C

Umidità 93 %

Visibilità  10 Km

Il sole sorge alle ore 06:00

Il sole tramonta alle ore 18:30

Data e Ora Cielo e Fenomeni T °C DP °C Um. % Pres. hPa Vis. km Vento km/h
Oggi h: 07:55 poco_nuvoloso Poco Nuvoloso 11 10 93 1019 10 N/NO 14.8
Oggi h: 06:55 poco_nuvoloso Poco Nuvoloso 8 7 93 1019 10 N/NE 7.4
Oggi h: 05:55 nebbia Nebbia a Strati 8 8 100 1019 10 N 5.5
Oggi h: 04:55 nuvoloso Nuvoloso 8 7 93 1019 10 N 9.3
Oggi h: 03:55 nuvoloso Nuvoloso 8 7 93 1019 10 N 7.4
Oggi h: 03:55 poco_nuvoloso Poco Nuvoloso 9 8 93 1020 10 N 3.7
Oggi h: 01:55 nuvoloso Nuvoloso 11 9 87 1020 10 N 3.7
Oggi h: 00:55 nuvoloso Nuvoloso 12 10 87 1020 10 N 5.5
Ieri h: 23:55 coperto_pioggia Pioggia Debole 12 11 93 1020 10 O/NO 11.1
Ieri h: 22:55 coperto_pioggia Pioggia Debole 13 12 93 1020 10 O 24
Ieri h: 21:55 nuvoloso Nuvoloso 14 12 87 1020 10 E 9.3
Ieri h: 20:55 nuvoloso Nuvoloso 14 13 93 1020 10 E/SE 7.4
Ieri h: 19:55 coperto_pioggia Pioggia Debole 13 12 93 1020 8 SE 7.4
Ieri h: 18:55 nuvoloso Nuvoloso 14 11 82 1020 10 S/SO 9.3
Ieri h: 17:55 poco_nuvoloso Poco Nuvoloso 15 13 87 1019 10 S 7.4
Ieri h: 16:55 poco_nuvoloso Poco Nuvoloso 16 12 77 1019 10 S 11.1
Ieri h: 15:55 sereno Sereno 17 11 67 1019 10 S/SO 11.1
Ieri h: 14:55 sereno Sereno 18 11 63 1019 10 S/SO 13
Ieri h: 13:55 sereno Sereno 18 11 63 1020 10 S 14.8
Ieri h: 12:55 sereno Sereno 18 9 55 1021 10 S 22.2
Ieri h: 11:55 sereno Sereno 20 5 37 1021 10 S 20.3
Ieri h: 10:55 sereno Sereno 19 6 42 1021 10 S 16.7
Ieri h: 09:55 sereno Sereno 19 5 39 1021 10 S/SE 13
Ieri h: 08:55 sereno Sereno 16 6 51 1021 10 SE 13